sensor_id;sensor_type;location;lat;lon;timestamp;pressure;altitude;pressure_sealevel;temperature;humidity
71145;BME280;58812;47.698;17.726;2022-11-15T02:10:57;100643.78;;;3.77;100.00
71145;BME280;58812;47.698;17.726;2022-11-15T02:13:22;100630.25;;;3.81;100.00
71145;BME280;58812;47.698;17.726;2022-11-15T02:18:48;100610.56;;;3.85;100.00
71145;BME280;58812;47.698;17.726;2022-11-15T02:21:36;100604.41;;;3.85;100.00
71145;BME280;58812;47.698;17.726;2022-11-15T02:26:41;100595.81;;;3.95;100.00
71145;BME280;58812;47.698;17.726;2022-11-15T02:29:28;100605.09;;;3.88;100.00
71145;BME280;58812;47.698;17.726;2022-11-15T02:32:06;100600.84;;;3.86;100.00
71145;BME280;58812;47.698;17.726;2022-11-15T02:37:57;100603.00;;;3.79;100.00
71145;BME280;58812;47.698;17.726;2022-11-15T02:40:29;100601.22;;;3.80;100.00
71145;BME280;58812;47.698;17.726;2022-11-15T02:43:08;100587.69;;;3.84;100.00
71145;BME280;58812;47.698;17.726;2022-11-15T02:46:00;100579.84;;;3.83;100.00
71145;BME280;58812;47.698;17.726;2022-11-15T02:48:26;100587.13;;;3.93;100.00
71145;BME280;58812;47.698;17.726;2022-11-15T02:50:52;100588.81;;;3.94;100.00
71145;BME280;58812;47.698;17.726;2022-11-15T02:53:17;100589.47;;;3.98;100.00
71145;BME280;58812;47.698;17.726;2022-11-15T02:55:45;100591.34;;;3.96;100.00
71145;BME280;58812;47.698;17.726;2022-11-15T02:58:34;100584.47;;;3.93;100.00
71145;BME280;58812;47.698;17.726;2022-11-15T03:01:15;100590.03;;;3.89;100.00
71145;BME280;58812;47.698;17.726;2022-11-15T03:07:10;100591.84;;;3.88;100.00
71145;BME280;58812;47.698;17.726;2022-11-15T03:12:41;100593.34;;;4.07;100.00
71145;BME280;58812;47.698;17.726;2022-11-15T03:15:15;100585.50;;;4.05;100.00
71145;BME280;58812;47.698;17.726;2022-11-15T03:18:05;100585.50;;;4.05;100.00
71145;BME280;58812;47.698;17.726;2022-11-15T03:20:35;100592.38;;;4.08;100.00
71145;BME280;58812;47.698;17.726;2022-11-15T03:23:05;100584.25;;;4.11;100.00
71145;BME280;58812;47.698;17.726;2022-11-15T03:25:33;100595.41;;;4.16;100.00
71145;BME280;58812;47.698;17.726;2022-11-15T03:28:03;100576.88;;;4.16;100.00
71145;BME280;58812;47.698;17.726;2022-11-15T03:30:32;100590.19;;;4.28;100.00
71145;BME280;58812;47.698;17.726;2022-11-15T03:33:00;100577.78;;;4.29;100.00
71145;BME280;58812;47.698;17.726;2022-11-15T03:35:30;100566.03;;;4.33;100.00
71145;BME280;58812;47.698;17.726;2022-11-15T03:38:11;100566.03;;;4.33;100.00
71145;BME280;58812;47.698;17.726;2022-11-15T03:40:42;100571.94;;;4.51;100.00
71145;BME280;58812;47.698;17.726;2022-11-15T03:43:24;100579.78;;;4.52;100.00
71145;BME280;58812;47.698;17.726;2022-11-15T03:45:56;100580.13;;;4.61;100.00
71145;BME280;58812;47.698;17.726;2022-11-15T03:48:27;100579.94;;;4.64;100.00
71145;BME280;58812;47.698;17.726;2022-11-15T03:50:56;100572.31;;;4.72;100.00
71145;BME280;58812;47.698;17.726;2022-11-15T03:53:21;100574.97;;;4.72;100.00
71145;BME280;58812;47.698;17.726;2022-11-15T03:55:46;100575.81;;;4.72;100.00
71145;BME280;58812;47.698;17.726;2022-11-15T03:58:12;100566.59;;;4.78;100.00
71145;BME280;58812;47.698;17.726;2022-11-15T04:00:37;100567.56;;;4.77;100.00
71145;BME280;58812;47.698;17.726;2022-11-15T04:03:03;100577.44;;;4.75;100.00
71145;BME280;58812;47.698;17.726;2022-11-15T04:05:28;100579.66;;;4.81;100.00
71145;BME280;58812;47.698;17.726;2022-11-15T04:07:53;100578.84;;;4.93;100.00
71145;BME280;58812;47.698;17.726;2022-11-15T04:10:19;100568.44;;;4.90;100.00
71145;BME280;58812;47.698;17.726;2022-11-15T04:12:45;100562.53;;;4.99;100.00
71145;BME280;58812;47.698;17.726;2022-11-15T04:15:19;100561.88;;;5.08;100.00
71145;BME280;58812;47.698;17.726;2022-11-15T04:17:53;100557.94;;;5.01;100.00
71145;BME280;58812;47.698;17.726;2022-11-15T04:20:25;100553.06;;;4.95;100.00
71145;BME280;58812;47.698;17.726;2022-11-15T04:23:18;100539.06;;;4.93;100.00
71145;BME280;58812;47.698;17.726;2022-11-15T04:26:14;100542.75;;;4.91;100.00
71145;BME280;58812;47.698;17.726;2022-11-15T04:28:41;100531.94;;;4.81;100.00
71145;BME280;58812;47.698;17.726;2022-11-15T04:31:25;100530.19;;;4.80;100.00
71145;BME280;58812;47.698;17.726;2022-11-15T04:33:50;100529.72;;;4.88;100.00
71145;BME280;58812;47.698;17.726;2022-11-15T04:36:15;100524.94;;;4.93;100.00
71145;BME280;58812;47.698;17.726;2022-11-15T04:38:59;100540.62;;;4.96;100.00
71145;BME280;58812;47.698;17.726;2022-11-15T04:41:25;100535.56;;;5.05;100.00
71145;BME280;58812;47.698;17.726;2022-11-15T04:43:50;100541.59;;;5.07;100.00
71145;BME280;58812;47.698;17.726;2022-11-15T04:46:15;100535.56;;;5.05;100.00
71145;BME280;58812;47.698;17.726;2022-11-15T04:48:41;100539.38;;;5.01;100.00
71145;BME280;58812;47.698;17.726;2022-11-15T04:51:06;100524.31;;;5.02;100.00
71145;BME280;58812;47.698;17.726;2022-11-15T04:53:32;100525.37;;;4.99;100.00
71145;BME280;58812;47.698;17.726;2022-11-15T04:55:57;100525.56;;;5.09;100.00
71145;BME280;58812;47.698;17.726;2022-11-15T04:58:22;100524.72;;;5.08;100.00
71145;BME280;58812;47.698;17.726;2022-11-15T05:00:48;100523.88;;;5.08;100.00
71145;BME280;58812;47.698;17.726;2022-11-15T05:03:13;100521.53;;;5.03;100.00
71145;BME280;58812;47.698;17.726;2022-11-15T05:05:57;100514.09;;;4.96;100.00
71145;BME280;58812;47.698;17.726;2022-11-15T05:08:24;100519.53;;;4.94;100.00
71145;BME280;58812;47.698;17.726;2022-11-15T05:10:49;100512.72;;;5.03;100.00
71145;BME280;58812;47.698;17.726;2022-11-15T05:13:14;100522.50;;;5.02;100.00
71145;BME280;58812;47.698;17.726;2022-11-15T05:15:40;100522.50;;;5.02;100.00
71145;BME280;58812;47.698;17.726;2022-11-15T05:18:05;100518.25;;;5.00;100.00
71145;BME280;58812;47.698;17.726;2022-11-15T05:20:30;100514.97;;;4.96;100.00
71145;BME280;58812;47.698;17.726;2022-11-15T05:22:56;100507.97;;;4.95;100.00
71145;BME280;58812;47.698;17.726;2022-11-15T05:25:22;100509.53;;;4.98;100.00
71145;BME280;58812;47.698;17.726;2022-11-15T05:27:47;100505.19;;;4.97;100.00
71145;BME280;58812;47.698;17.726;2022-11-15T05:30:14;100514.75;;;4.99;100.00
71145;BME280;58812;47.698;17.726;2022-11-15T05:32:39;100506.03;;;4.97;100.00
71145;BME280;58812;47.698;17.726;2022-11-15T05:35:07;100518.37;;;4.98;100.00
71145;BME280;58812;47.698;17.726;2022-11-15T05:37:33;100497.66;;;5.03;100.00
71145;BME280;58812;47.698;17.726;2022-11-15T05:39:59;100495.00;;;5.03;100.00
71145;BME280;58812;47.698;17.726;2022-11-15T05:42:25;100496.50;;;5.07;100.00
71145;BME280;58812;47.698;17.726;2022-11-15T05:44:52;100488.00;;;5.02;100.00
71145;BME280;58812;47.698;17.726;2022-11-15T05:47:23;100474.00;;;5.00;100.00
71145;BME280;58812;47.698;17.726;2022-11-15T05:49:51;100470.09;;;4.93;100.00
71145;BME280;58812;47.698;17.726;2022-11-15T05:52:20;100469.12;;;4.94;100.00
71145;BME280;58812;47.698;17.726;2022-11-15T05:54:47;100473.16;;;5.00;100.00
71145;BME280;58812;47.698;17.726;2022-11-15T05:57:13;100468.16;;;5.08;100.00
71145;BME280;58812;47.698;17.726;2022-11-15T05:59:39;100475.28;;;5.07;100.00
71145;BME280;58812;47.698;17.726;2022-11-15T06:02:06;100488.66;;;4.93;100.00
71145;BME280;58812;47.698;17.726;2022-11-15T06:04:31;100485.47;;;4.88;100.00
71145;BME280;58812;47.698;17.726;2022-11-15T06:06:58;100494.16;;;4.90;100.00
71145;BME280;58812;47.698;17.726;2022-11-15T06:09:24;100482.69;;;5.02;100.00
71145;BME280;58812;47.698;17.726;2022-11-15T06:11:49;100491.72;;;5.00;100.00
71145;BME280;58812;47.698;17.726;2022-11-15T06:14:15;100488.53;;;5.07;100.00
71145;BME280;58812;47.698;17.726;2022-11-15T06:16:40;100496.50;;;5.07;100.00
71145;BME280;58812;47.698;17.726;2022-11-15T06:19:06;100495.88;;;5.17;100.00
71145;BME280;58812;47.698;17.726;2022-11-15T06:21:32;100498.09;;;5.23;100.00
71145;BME280;58812;47.698;17.726;2022-11-15T06:23:58;100492.69;;;5.24;100.00
71145;BME280;58812;47.698;17.726;2022-11-15T06:26:23;100495.66;;;5.20;100.00
71145;BME280;58812;47.698;17.726;2022-11-15T06:28:48;100497.56;;;5.18;100.00
71145;BME280;58812;47.698;17.726;2022-11-15T06:31:14;100494.16;;;5.16;100.00
71145;BME280;58812;47.698;17.726;2022-11-15T06:33:40;100487.91;;;5.17;100.00
71145;BME280;58812;47.698;17.726;2022-11-15T06:36:07;100491.19;;;5.20;100.00
71145;BME280;58812;47.698;17.726;2022-11-15T06:38:33;100486.94;;;5.18;100.00
71145;BME280;58812;47.698;17.726;2022-11-15T06:41:02;100483.44;;;5.17;100.00
71145;BME280;58812;47.698;17.726;2022-11-15T06:43:28;100488.53;;;5.20;100.00
71145;BME280;58812;47.698;17.726;2022-11-15T06:45:54;100483.66;;;5.27;100.00
71145;BME280;58812;47.698;17.726;2022-11-15T06:48:19;100489.38;;;5.33;100.00
71145;BME280;58812;47.698;17.726;2022-11-15T06:50:51;100490.97;;;5.36;100.00
71145;BME280;58812;47.698;17.726;2022-11-15T06:53:16;100496.81;;;5.41;100.00
71145;BME280;58812;47.698;17.726;2022-11-15T06:55:42;100492.22;;;5.43;100.00
71145;BME280;58812;47.698;17.726;2022-11-15T06:58:07;100486.50;;;5.49;100.00
71145;BME280;58812;47.698;17.726;2022-11-15T07:00:32;100490.53;;;5.55;100.00
71145;BME280;58812;47.698;17.726;2022-11-15T07:03:01;100479.91;;;5.55;100.00
71145;BME280;58812;47.698;17.726;2022-11-15T07:05:26;100490.72;;;5.65;100.00
71145;BME280;58812;47.698;17.726;2022-11-15T07:07:53;100487.84;;;5.68;100.00
71145;BME280;58812;47.698;17.726;2022-11-15T07:10:19;100490.50;;;5.68;100.00
71145;BME280;58812;47.698;17.726;2022-11-15T07:12:47;100487.50;;;5.72;100.00
71145;BME280;58812;47.698;17.726;2022-11-15T07:15:14;100478.56;;;5.73;100.00
71145;BME280;58812;47.698;17.726;2022-11-15T07:17:39;100487.50;;;5.72;100.00
71145;BME280;58812;47.698;17.726;2022-11-15T07:20:05;100487.91;;;5.79;100.00
71145;BME280;58812;47.698;17.726;2022-11-15T07:22:30;100480.25;;;5.87;100.00
71145;BME280;58812;47.698;17.726;2022-11-15T07:24:56;100481.44;;;5.83;100.00
71145;BME280;58812;47.698;17.726;2022-11-15T07:27:21;100487.47;;;5.85;100.00
71145;BME280;58812;47.698;17.726;2022-11-15T07:29:46;100477.94;;;5.82;100.00
71145;BME280;58812;47.698;17.726;2022-11-15T07:32:12;100474.19;;;5.85;100.00
71145;BME280;58812;47.698;17.726;2022-11-15T07:34:37;100466.22;;;5.85;100.00
71145;BME280;58812;47.698;17.726;2022-11-15T07:37:02;100463.44;;;5.86;100.00
71145;BME280;58812;47.698;17.726;2022-11-15T07:39:28;100452.72;;;5.88;100.00
71145;BME280;58812;47.698;17.726;2022-11-15T07:41:53;100458.75;;;5.90;100.00
71145;BME280;58812;47.698;17.726;2022-11-15T07:44:38;100457.63;;;5.94;100.00
71145;BME280;58812;47.698;17.726;2022-11-15T07:47:04;100459.91;;;5.99;100.00
71145;BME280;58812;47.698;17.726;2022-11-15T07:49:29;100457.91;;;6.02;100.00
71145;BME280;58812;47.698;17.726;2022-11-15T07:51:55;100460.94;;;6.09;100.00
71145;BME280;58812;47.698;17.726;2022-11-15T07:54:20;100466.16;;;6.10;100.00
71145;BME280;58812;47.698;17.726;2022-11-15T07:56:45;100458.69;;;6.15;100.00
71145;BME280;58812;47.698;17.726;2022-11-15T07:59:11;100466.84;;;6.25;100.00
71145;BME280;58812;47.698;17.726;2022-11-15T08:01:36;100458.91;;;6.36;100.00
71145;BME280;58812;47.698;17.726;2022-11-15T08:04:01;100468.75;;;6.47;100.00
71145;BME280;58812;47.698;17.726;2022-11-15T08:06:27;100463.34;;;6.60;100.00
71145;BME280;58812;47.698;17.726;2022-11-15T08:08:52;100454.78;;;6.67;100.00
71145;BME280;58812;47.698;17.726;2022-11-15T08:11:17;100450.91;;;6.72;100.00
71145;BME280;58812;47.698;17.726;2022-11-15T08:13:43;100455.78;;;6.78;100.00
71145;BME280;58812;47.698;17.726;2022-11-15T08:16:08;100455.53;;;6.81;100.00
71145;BME280;58812;47.698;17.726;2022-11-15T08:18:34;100450.47;;;6.89;100.00
71145;BME280;58812;47.698;17.726;2022-11-15T08:21:00;100451.88;;;6.82;100.00
71145;BME280;58812;47.698;17.726;2022-11-15T08:23:26;100451.66;;;6.85;100.00
71145;BME280;58812;47.698;17.726;2022-11-15T08:25:51;100459.91;;;6.93;100.00
71145;BME280;58812;47.698;17.726;2022-11-15T08:28:17;100456.66;;;7.01;100.00
71145;BME280;58812;47.698;17.726;2022-11-15T08:30:42;100461.38;;;6.97;100.00
71145;BME280;58812;47.698;17.726;2022-11-15T08:33:12;100464.03;;;7.08;100.00
71145;BME280;58812;47.698;17.726;2022-11-15T08:35:40;100466.94;;;7.05;100.00
71145;BME280;58812;47.698;17.726;2022-11-15T08:38:05;100452.56;;;7.08;100.00
71145;BME280;58812;47.698;17.726;2022-11-15T08:40:31;100462.00;;;7.23;100.00
71145;BME280;58812;47.698;17.726;2022-11-15T08:42:56;100467.69;;;7.18;100.00
71145;BME280;58812;47.698;17.726;2022-11-15T08:45:23;100459.34;;;7.12;100.00
71145;BME280;58812;47.698;17.726;2022-11-15T08:47:49;100464.41;;;7.26;100.00
71145;BME280;58812;47.698;17.726;2022-11-15T08:50:15;100463.81;;;7.34;100.00
71145;BME280;58812;47.698;17.726;2022-11-15T08:52:40;100452.56;;;7.41;100.00
71145;BME280;58812;47.698;17.726;2022-11-15T08:55:06;100452.94;;;7.48;100.00
71145;BME280;58812;47.698;17.726;2022-11-15T08:57:32;100449.78;;;7.54;100.00
71145;BME280;58812;47.698;17.726;2022-11-15T08:59:58;100453.28;;;7.66;100.00
71145;BME280;58812;47.698;17.726;2022-11-15T09:02:23;100453.16;;;7.67;100.00
71145;BME280;58812;47.698;17.726;2022-11-15T09:04:49;100454.31;;;7.86;100.00
71145;BME280;58812;47.698;17.726;2022-11-15T09:07:14;100463.78;;;7.90;100.00
71145;BME280;58812;47.698;17.726;2022-11-15T09:09:40;100453.81;;;7.92;100.00
71145;BME280;58812;47.698;17.726;2022-11-15T09:12:06;100448.31;;;8.04;100.00
71145;BME280;58812;47.698;17.726;2022-11-15T09:14:32;100453.41;;;8.08;100.00
71145;BME280;58812;47.698;17.726;2022-11-15T09:16:58;100452.78;;;8.15;100.00
71145;BME280;58812;47.698;17.726;2022-11-15T09:19:24;100451.19;;;7.81;100.00
71145;BME280;58812;47.698;17.726;2022-11-15T09:21:49;100449.31;;;8.03;100.00
71145;BME280;58812;47.698;17.726;2022-11-15T09:24:15;100443.47;;;8.42;100.00
71145;BME280;58812;47.698;17.726;2022-11-15T09:26:40;100452.34;;;8.42;100.00
71145;BME280;58812;47.698;17.726;2022-11-15T09:29:06;100434.91;;;8.38;100.00
71145;BME280;58812;47.698;17.726;2022-11-15T09:31:31;100437.31;;;8.41;100.00
71145;BME280;58812;47.698;17.726;2022-11-15T09:33:57;100439.63;;;8.02;100.00
71145;BME280;58812;47.698;17.726;2022-11-15T09:36:22;100427.03;;;8.37;100.00
71145;BME280;58812;47.698;17.726;2022-11-15T09:38:48;100425.56;;;8.33;100.00
71145;BME280;58812;47.698;17.726;2022-11-15T09:49:03;100417.03;;;8.50;100.00
71145;BME280;58812;47.698;17.726;2022-11-15T09:51:32;100409.41;;;8.66;100.00
71145;BME280;58812;47.698;17.726;2022-11-15T09:56:36;100386.28;;;8.76;100.00
71145;BME280;58812;47.698;17.726;2022-11-15T10:04:21;100384.44;;;8.98;100.00
71145;BME280;58812;47.698;17.726;2022-11-15T10:07:02;100380.06;;;8.97;100.00
71145;BME280;58812;47.698;17.726;2022-11-15T10:09:36;100375.50;;;9.08;100.00
71145;BME280;58812;47.698;17.726;2022-11-15T10:12:03;100371.59;;;9.22;100.00
71145;BME280;58812;47.698;17.726;2022-11-15T10:14:30;100369.37;;;9.27;100.00
71145;BME280;58812;47.698;17.726;2022-11-15T10:17:19;100364.69;;;9.70;100.00
71145;BME280;58812;47.698;17.726;2022-11-15T10:22:39;100362.75;;;9.91;100.00
71145;BME280;58812;47.698;17.726;2022-11-15T10:27:34;100351.34;;;9.99;100.00
71145;BME280;58812;47.698;17.726;2022-11-15T10:30:00;100350.47;;;10.08;100.00
71145;BME280;58812;47.698;17.726;2022-11-15T10:32:26;100351.44;;;10.65;98.35
71145;BME280;58812;47.698;17.726;2022-11-15T10:34:51;100349.66;;;10.93;95.49
71145;BME280;58812;47.698;17.726;2022-11-15T10:37:28;100357.56;;;11.22;95.11
71145;BME280;58812;47.698;17.726;2022-11-15T10:40:21;100343.19;;;11.23;95.33
71145;BME280;58812;47.698;17.726;2022-11-15T10:42:48;100342.97;;;10.60;96.56
71145;BME280;58812;47.698;17.726;2022-11-15T10:45:31;100341.47;;;10.48;98.21
71145;BME280;58812;47.698;17.726;2022-11-15T10:50:38;100328.09;;;9.89;99.14
71145;BME280;58812;47.698;17.726;2022-11-15T10:53:29;100313.75;;;9.71;99.76
71145;BME280;58812;47.698;17.726;2022-11-15T10:56:00;100323.34;;;9.74;100.00
71145;BME280;58812;47.698;17.726;2022-11-15T11:01:29;100304.66;;;9.14;100.00
71145;BME280;58812;47.698;17.726;2022-11-15T11:04:12;100290.88;;;9.09;100.00
71145;BME280;58812;47.698;17.726;2022-11-15T11:06:48;100293.00;;;9.15;100.00
71145;BME280;58812;47.698;17.726;2022-11-15T11:09:35;100289.09;;;8.89;100.00
71145;BME280;58812;47.698;17.726;2022-11-15T11:12:02;100280.44;;;9.06;100.00
71145;BME280;58812;47.698;17.726;2022-11-15T11:14:30;100290.03;;;9.18;100.00
71145;BME280;58812;47.698;17.726;2022-11-15T11:17:49;100282.69;;;9.01;100.00
71145;BME280;58812;47.698;17.726;2022-11-15T11:20:13;100282.13;;;9.07;100.00
71145;BME280;58812;47.698;17.726;2022-11-15T11:23:26;100277.84;;;9.35;100.00
71145;BME280;58812;47.698;17.726;2022-11-15T11:26:11;100274.34;;;9.34;100.00
71145;BME280;58812;47.698;17.726;2022-11-15T11:29:06;100275.91;;;9.47;100.00
71145;BME280;58812;47.698;17.726;2022-11-15T11:41:06;100258.84;;;9.28;100.00
71145;BME280;58812;47.698;17.726;2022-11-15T11:48:52;100251.50;;;9.11;100.00
71145;BME280;58812;47.698;17.726;2022-11-15T11:51:33;100247.44;;;9.17;100.00
71145;BME280;58812;47.698;17.726;2022-11-15T11:54:17;100243.69;;;9.39;100.00
71145;BME280;58812;47.698;17.726;2022-11-15T11:56:44;100232.44;;;9.35;100.00
71145;BME280;58812;47.698;17.726;2022-11-15T11:59:25;100232.72;;;9.32;100.00
71145;BME280;58812;47.698;17.726;2022-11-15T12:01:52;100212.19;;;9.32;100.00
71145;BME280;58812;47.698;17.726;2022-11-15T12:04:26;100216.84;;;9.50;100.00
71145;BME280;58812;47.698;17.726;2022-11-15T12:07:19;100202.06;;;9.46;100.00
71145;BME280;58812;47.698;17.726;2022-11-15T12:10:23;100211.19;;;9.53;100.00
71145;BME280;58812;47.698;17.726;2022-11-15T12:15:56;100212.50;;;9.49;100.00
71145;BME280;58812;47.698;17.726;2022-11-15T12:18:24;100209.94;;;9.47;100.00
71145;BME280;58812;47.698;17.726;2022-11-15T12:21:01;100210.22;;;9.63;100.00
71145;BME280;58812;47.698;17.726;2022-11-15T12:23:32;100203.72;;;9.66;100.00
71145;BME280;58812;47.698;17.726;2022-11-15T12:26:07;100198.25;;;9.68;100.00
71145;BME280;58812;47.698;17.726;2022-11-15T12:28:55;100202.87;;;9.75;100.00
71145;BME280;58812;47.698;17.726;2022-11-15T12:34:02;100180.66;;;9.75;100.00
71145;BME280;58812;47.698;17.726;2022-11-15T12:36:42;100174.75;;;9.71;100.00
71145;BME280;58812;47.698;17.726;2022-11-15T12:39:09;100171.06;;;9.72;100.00
71145;BME280;58812;47.698;17.726;2022-11-15T12:41:37;100172.78;;;9.73;100.00
71145;BME280;58812;47.698;17.726;2022-11-15T12:44:04;100172.22;;;9.79;100.00
71145;BME280;58812;47.698;17.726;2022-11-15T12:59:59;100156.69;;;9.93;100.00
71145;BME280;58812;47.698;17.726;2022-11-15T13:02:33;100149.94;;;9.88;100.00
71145;BME280;58812;47.698;17.726;2022-11-15T13:30:35;100107.84;;;9.44;100.00
71145;BME280;58812;47.698;17.726;2022-11-15T13:33:08;100103.19;;;9.36;100.00
71145;BME280;58812;47.698;17.726;2022-11-15T13:35:39;100093.09;;;9.40;100.00
71145;BME280;58812;47.698;17.726;2022-11-15T13:38:05;100089.56;;;9.39;100.00
71145;BME280;58812;47.698;17.726;2022-11-15T13:40:36;100094.34;;;9.35;100.00
71145;BME280;58812;47.698;17.726;2022-11-15T13:46:04;100077.78;;;9.32;100.00
71145;BME280;58812;47.698;17.726;2022-11-15T13:48:30;100088.59;;;9.30;100.00
71145;BME280;58812;47.698;17.726;2022-11-15T13:50:56;100090.16;;;9.33;100.00
71145;BME280;58812;47.698;17.726;2022-11-15T13:53:22;100094.06;;;9.39;100.00
71145;BME280;58812;47.698;17.726;2022-11-15T13:55:49;100092.41;;;9.38;100.00
71145;BME280;58812;47.698;17.726;2022-11-15T13:58:15;100089.00;;;9.35;100.00
71145;BME280;58812;47.698;17.726;2022-11-15T14:00:42;100080.31;;;9.33;100.00
71145;BME280;58812;47.698;17.726;2022-11-15T14:03:27;100079.72;;;9.30;100.00
71145;BME280;58812;47.698;17.726;2022-11-15T14:06:12;100080.56;;;9.30;100.00
71145;BME280;58812;47.698;17.726;2022-11-15T14:08:41;100086.78;;;9.21;100.00
71145;BME280;58812;47.698;17.726;2022-11-15T14:11:19;100083.12;;;9.22;100.00
71145;BME280;58812;47.698;17.726;2022-11-15T14:16:37;100086.38;;;9.16;100.00
71145;BME280;58812;47.698;17.726;2022-11-15T14:19:04;100081.84;;;9.07;100.00
71145;BME280;58812;47.698;17.726;2022-11-15T14:21:30;100087.91;;;8.99;100.00
71145;BME280;58812;47.698;17.726;2022-11-15T14:24:19;100080.87;;;8.98;100.00
71145;BME280;58812;47.698;17.726;2022-11-15T14:26:45;100071.34;;;8.96;100.00
71145;BME280;58812;47.698;17.726;2022-11-15T14:29:29;100073.59;;;8.91;100.00
71145;BME280;58812;47.698;17.726;2022-11-15T14:32:49;100067.97;;;8.94;100.00
71145;BME280;58812;47.698;17.726;2022-11-15T14:35:20;100074.03;;;8.96;100.00
71145;BME280;58812;47.698;17.726;2022-11-15T14:37:46;100068.69;;;8.96;100.00
71145;BME280;58812;47.698;17.726;2022-11-15T14:40:14;100069.38;;;8.98;100.00
71145;BME280;58812;47.698;17.726;2022-11-15T14:42:41;100065.03;;;8.97;100.00
71145;BME280;58812;47.698;17.726;2022-11-15T14:45:21;100066.56;;;8.90;100.00
71145;BME280;58812;47.698;17.726;2022-11-15T14:47:47;100061.81;;;8.83;100.00
71145;BME280;58812;47.698;17.726;2022-11-15T14:50:14;100064.03;;;8.88;100.00
71145;BME280;58812;47.698;17.726;2022-11-15T14:52:40;100058.69;;;8.88;100.00
71145;BME280;58812;47.698;17.726;2022-11-15T14:55:26;100052.81;;;8.85;100.00
71145;BME280;58812;47.698;17.726;2022-11-15T14:57:53;100055.31;;;8.86;100.00
71145;BME280;58812;47.698;17.726;2022-11-15T15:00:19;100056.16;;;8.87;100.00
71145;BME280;58812;47.698;17.726;2022-11-15T15:02:46;100056.84;;;8.89;100.00
71145;BME280;58812;47.698;17.726;2022-11-15T15:05:18;100051.81;;;8.86;100.00
71145;BME280;58812;47.698;17.726;2022-11-15T15:07:45;100051.66;;;8.87;100.00
71145;BME280;58812;47.698;17.726;2022-11-15T15:10:11;100047.19;;;8.78;100.00
71145;BME280;58812;47.698;17.726;2022-11-15T15:12:37;100045.34;;;8.78;100.00
71145;BME280;58812;47.698;17.726;2022-11-15T15:15:04;100035.09;;;8.74;100.00
71145;BME280;58812;47.698;17.726;2022-11-15T15:17:29;100039.59;;;8.73;100.00
71145;BME280;58812;47.698;17.726;2022-11-15T15:19:55;100027.34;;;8.71;100.00
71145;BME280;58812;47.698;17.726;2022-11-15T15:22:20;100026.81;;;8.67;100.00
71145;BME280;58812;47.698;17.726;2022-11-15T15:24:47;100014.56;;;8.65;100.00
71145;BME280;58812;47.698;17.726;2022-11-15T15:27:13;100022.03;;;8.61;100.00
71145;BME280;58812;47.698;17.726;2022-11-15T15:29:39;100026.78;;;8.57;100.00
71145;BME280;58812;47.698;17.726;2022-11-15T15:32:04;100025.53;;;8.52;100.00
71145;BME280;58812;47.698;17.726;2022-11-15T15:34:30;100031.59;;;8.54;100.00
71145;BME280;58812;47.698;17.726;2022-11-15T15:39:48;100033.41;;;8.44;100.00
71145;BME280;58812;47.698;17.726;2022-11-15T15:42:13;100024.53;;;8.43;100.00
71145;BME280;58812;47.698;17.726;2022-11-15T15:44:39;100022.56;;;8.36;100.00
71145;BME280;58812;47.698;17.726;2022-11-15T15:47:11;100014.97;;;8.31;100.00
71145;BME280;58812;47.698;17.726;2022-11-15T15:49:36;100018.72;;;8.28;100.00
71145;BME280;58812;47.698;17.726;2022-11-15T15:52:02;100008.59;;;8.22;100.00
71145;BME280;58812;47.698;17.726;2022-11-15T15:54:27;100008.19;;;8.17;100.00
71145;BME280;58812;47.698;17.726;2022-11-15T15:56:52;100008.72;;;8.11;100.00
71145;BME280;58812;47.698;17.726;2022-11-15T15:59:18;100000.28;;;8.06;100.00
71145;BME280;58812;47.698;17.726;2022-11-15T16:01:43;100006.91;;;8.02;100.00
71145;BME280;58812;47.698;17.726;2022-11-15T16:04:08;100002.66;;;7.99;100.00
71145;BME280;58812;47.698;17.726;2022-11-15T16:06:37;100005.47;;;7.98;100.00
71145;BME280;58812;47.698;17.726;2022-11-15T16:09:04;100001.81;;;7.89;100.00
71145;BME280;58812;47.698;17.726;2022-11-15T16:11:30;100002.47;;;7.82;100.00
71145;BME280;58812;47.698;17.726;2022-11-15T16:13:55;99998.97;;;7.81;100.00
71145;BME280;58812;47.698;17.726;2022-11-15T16:16:21;99995.59;;;7.79;100.00
71145;BME280;58812;47.698;17.726;2022-11-15T16:18:47;99996.59;;;7.78;100.00
71145;BME280;58812;47.698;17.726;2022-11-15T16:21:12;99987.75;;;7.78;100.00
71145;BME280;58812;47.698;17.726;2022-11-15T16:23:38;99976.38;;;7.75;100.00
71145;BME280;58812;47.698;17.726;2022-11-15T16:26:16;99984.34;;;7.75;100.00
71145;BME280;58812;47.698;17.726;2022-11-15T16:28:43;99980.00;;;7.74;100.00
71145;BME280;58812;47.698;17.726;2022-11-15T16:31:10;99988.59;;;7.78;100.00
71145;BME280;58812;47.698;17.726;2022-11-15T16:33:36;99984.09;;;7.79;100.00
71145;BME280;58812;47.698;17.726;2022-11-15T16:36:02;99984.09;;;7.79;100.00
71145;BME280;58812;47.698;17.726;2022-11-15T16:38:28;99992.78;;;7.81;100.00
71145;BME280;58812;47.698;17.726;2022-11-15T16:41:20;99995.34;;;7.92;100.00
71145;BME280;58812;47.698;17.726;2022-11-15T16:43:45;99991.75;;;8.02;100.00
71145;BME280;58812;47.698;17.726;2022-11-15T16:46:19;99999.03;;;8.00;100.00
71145;BME280;58812;47.698;17.726;2022-11-15T16:48:46;100002.81;;;7.98;100.00
71145;BME280;58812;47.698;17.726;2022-11-15T16:51:12;99994.22;;;7.94;100.00
71145;BME280;58812;47.698;17.726;2022-11-15T16:53:37;99990.47;;;7.97;100.00